createdAt,value
2019-03-13T00:00:39.094Z,78.39
2019-03-13T00:03:09.446Z,78.26
2019-03-13T00:05:40.256Z,78.34
2019-03-13T00:08:10.628Z,78.24
2019-03-13T00:10:41.511Z,78.26
2019-03-13T00:13:11.989Z,78.34
2019-03-13T00:15:42.321Z,78.58
2019-03-13T00:18:13.043Z,78.58
2019-03-13T00:20:43.665Z,78.66
2019-03-13T00:23:14.001Z,78.40
2019-03-13T00:25:45.343Z,78.09
2019-03-13T00:28:15.732Z,78.05
2019-03-13T00:30:46.422Z,78.00
2019-03-13T00:33:16.942Z,78.02
2019-03-13T00:35:47.716Z,79.16
2019-03-13T00:38:18.026Z,79.94
2019-03-13T00:40:48.711Z,79.33
2019-03-13T00:43:19.005Z,78.79
2019-03-13T00:45:49.530Z,78.26
2019-03-13T00:48:20.286Z,78.55
2019-03-13T00:50:51.611Z,79.06
2019-03-13T00:53:22.099Z,79.12
2019-03-13T00:55:53.032Z,79.31
2019-03-13T00:58:25.375Z,79.42
2019-03-13T01:01:17.433Z,79.36
2019-03-13T01:03:56.657Z,79.46
2019-03-13T01:06:33.829Z,79.48
2019-03-13T01:09:05.767Z,79.70
2019-03-13T01:11:36.793Z,79.99
2019-03-13T01:14:07.365Z,80.12
2019-03-13T01:16:39.212Z,80.56
2019-03-13T01:19:09.512Z,80.89
2019-03-13T01:21:40.236Z,80.61
2019-03-13T01:24:11.061Z,80.66
2019-03-13T01:26:41.399Z,80.89
2019-03-13T01:29:11.692Z,80.75
2019-03-13T01:32:00.543Z,80.84
2019-03-13T01:34:37.616Z,80.84
2019-03-13T01:37:07.939Z,80.32
2019-03-13T01:39:38.721Z,80.50
2019-03-13T01:42:09.338Z,80.35
2019-03-13T01:44:40.894Z,80.63
2019-03-13T01:47:11.273Z,81.01
2019-03-13T01:49:41.567Z,80.67
2019-03-13T01:52:12.423Z,80.68
2019-03-13T01:54:43.122Z,80.76
2019-03-13T01:57:13.607Z,80.15
2019-03-13T01:59:44.181Z,79.46
2019-03-13T02:02:14.957Z,80.00
2019-03-13T02:04:46.312Z,80.09
2019-03-13T02:07:17.093Z,80.15
2019-03-13T02:09:47.891Z,80.65
2019-03-13T02:12:18.317Z,80.73
2019-03-13T02:14:48.800Z,80.61
2019-03-13T02:17:19.342Z,80.81
2019-03-13T02:19:50.036Z,80.89
2019-03-13T02:22:20.919Z,80.84
2019-03-13T02:24:54.029Z,80.55
2019-03-13T02:27:23.490Z,80.65
2019-03-13T02:29:53.885Z,80.58
2019-03-13T02:32:24.230Z,80.73
2019-03-13T02:34:54.676Z,80.97
2019-03-13T02:37:25.238Z,81.17
2019-03-13T02:39:55.632Z,81.16
2019-03-13T02:42:26.267Z,81.44
2019-03-13T02:44:57.023Z,80.49
2019-03-13T02:47:27.341Z,80.33
2019-03-13T02:49:57.750Z,80.15
2019-03-13T02:52:28.524Z,80.23
2019-03-13T02:54:59.151Z,79.87
2019-03-13T02:57:29.579Z,80.25
2019-03-13T03:00:00.518Z,80.39
2019-03-13T03:02:50.439Z,80.00
2019-03-13T03:05:20.730Z,79.42
2019-03-13T03:07:51.636Z,79.76
2019-03-13T03:10:22.428Z,80.10
2019-03-13T03:12:52.760Z,80.11
2019-03-13T03:15:23.329Z,79.63
2019-03-13T03:17:54.104Z,79.25
2019-03-13T03:20:24.406Z,78.68
2019-03-13T03:22:55.002Z,78.68
2019-03-13T03:25:25.297Z,78.87
2019-03-13T03:27:55.756Z,78.81
2019-03-13T03:30:26.270Z,79.04
2019-03-13T03:32:56.668Z,79.09
2019-03-13T03:35:27.277Z,78.63
2019-03-13T03:37:58.250Z,78.35
2019-03-13T03:40:28.574Z,77.93
2019-03-13T03:42:58.922Z,77.05
2019-03-13T03:45:29.443Z,77.65
2019-03-13T03:47:59.824Z,77.31
2019-03-13T03:50:30.083Z,75.78
2019-03-13T03:53:00.731Z,75.93
2019-03-13T03:55:31.092Z,75.58
2019-03-13T03:58:01.627Z,75.42
2019-03-13T04:00:32.875Z,75.35
2019-03-13T04:03:03.516Z,75.04
2019-03-13T04:05:34.190Z,75.14
2019-03-13T04:08:04.868Z,74.58
2019-03-13T04:10:35.160Z,74.73
2019-03-13T04:13:05.890Z,74.75
2019-03-13T04:15:36.360Z,75.07
2019-03-13T04:18:06.683Z,75.25
2019-03-13T04:20:37.501Z,75.23
2019-03-13T04:23:08.034Z,74.47
2019-03-13T04:25:39.807Z,74.61
2019-03-13T04:28:10.410Z,74.30
2019-03-13T04:30:40.710Z,74.94
2019-03-13T04:33:11.428Z,75.01
2019-03-13T04:35:41.911Z,75.12
2019-03-13T04:38:12.465Z,74.90
2019-03-13T04:40:43.153Z,74.48
2019-03-13T04:43:13.969Z,74.20
2019-03-13T04:45:44.260Z,74.23
2019-03-13T04:48:16.043Z,73.92
2019-03-13T04:50:46.420Z,73.51
2019-03-13T04:53:16.801Z,73.62
2019-03-13T04:55:47.294Z,73.68
2019-03-13T04:58:17.735Z,73.60
2019-03-13T05:00:48.403Z,74.01
2019-03-13T05:03:18.916Z,73.61
2019-03-13T05:05:51.573Z,73.62
2019-03-13T05:08:28.955Z,73.33
2019-03-13T05:11:00.985Z,73.11
2019-03-13T05:13:31.313Z,73.12
2019-03-13T05:16:01.933Z,73.71
2019-03-13T05:18:32.383Z,73.98
2019-03-13T05:21:02.749Z,72.56
2019-03-13T05:23:33.290Z,73.41
2019-03-13T05:26:04.042Z,73.84
2019-03-13T05:28:34.433Z,74.02
2019-03-13T05:31:05.222Z,74.21
2019-03-13T05:33:35.523Z,73.58
2019-03-13T05:36:06.558Z,72.73
2019-03-13T05:38:37.140Z,71.46
2019-03-13T05:41:07.682Z,71.27
2019-03-13T05:43:38.249Z,70.40
2019-03-13T05:46:08.945Z,69.11
2019-03-13T05:48:39.424Z,68.81
2019-03-13T05:51:09.781Z,68.34
2019-03-13T05:53:40.226Z,67.95
2019-03-13T05:56:10.540Z,66.94
2019-03-13T05:58:41.008Z,65.99
2019-03-13T06:01:11.896Z,65.96
2019-03-13T06:03:42.335Z,65.69
2019-03-13T06:06:13.089Z,65.44
2019-03-13T06:08:43.538Z,64.78
2019-03-13T06:11:13.990Z,64.65
2019-03-13T06:13:47.121Z,64.70
2019-03-13T06:16:16.676Z,64.77
2019-03-13T06:18:46.985Z,64.58
2019-03-13T06:21:17.843Z,64.56
2019-03-13T06:23:48.424Z,64.01
2019-03-13T06:26:18.792Z,63.88
2019-03-13T06:28:50.224Z,63.66
2019-03-13T06:31:20.781Z,64.00
2019-03-13T06:33:51.271Z,64.04
2019-03-13T06:36:21.812Z,63.51
2019-03-13T06:38:52.132Z,63.54
2019-03-13T06:41:22.753Z,62.81
2019-03-13T06:43:53.315Z,62.37
2019-03-13T06:46:23.583Z,62.17
2019-03-13T06:48:54.129Z,61.22
2019-03-13T06:51:24.853Z,61.30
2019-03-13T06:53:55.142Z,61.00
2019-03-13T06:56:25.515Z,60.71
2019-03-13T06:59:01.342Z,60.81
2019-03-13T07:01:47.214Z,60.59
2019-03-13T07:04:27.156Z,60.33
2019-03-13T07:07:16.625Z,59.10
2019-03-13T07:10:01.739Z,58.86
2019-03-13T07:12:43.764Z,58.52
2019-03-13T07:15:38.576Z,58.14
2019-03-13T07:18:17.367Z,57.67
2019-03-13T07:21:09.437Z,58.14
2019-03-13T07:24:07.867Z,57.41
2019-03-13T07:26:46.250Z,57.39
2019-03-13T07:29:25.979Z,57.14
2019-03-13T07:32:13.947Z,57.29
2019-03-13T07:34:59.715Z,57.34
2019-03-13T07:37:52.013Z,56.41
2019-03-13T07:40:34.033Z,56.73
2019-03-13T07:43:22.997Z,56.26
2019-03-13T07:46:15.678Z,54.81
2019-03-13T07:49:14.545Z,54.52
2019-03-13T07:52:09.385Z,54.95
2019-03-13T07:54:57.602Z,55.08
2019-03-13T07:57:43.561Z,54.79
2019-03-13T08:00:26.091Z,53.34
2019-03-13T08:03:13.415Z,53.78
2019-03-13T08:06:05.476Z,52.81
2019-03-13T08:08:53.376Z,51.13
2019-03-13T08:11:54.683Z,52.28
2019-03-13T08:14:42.746Z,51.50
2019-03-13T08:17:21.022Z,50.56
2019-03-13T08:20:09.308Z,51.39
2019-03-13T08:22:58.160Z,50.87
2019-03-13T08:25:46.640Z,49.20
2019-03-13T08:28:33.595Z,49.86
2019-03-13T08:31:21.733Z,50.05
2019-03-13T08:34:14.356Z,50.10
2019-03-13T08:37:12.649Z,50.30
2019-03-13T08:40:00.499Z,49.47
2019-03-13T08:42:51.193Z,49.22
2019-03-13T08:45:55.789Z,49.04
2019-03-13T08:48:36.761Z,49.73
2019-03-13T08:51:31.775Z,49.78
2019-03-13T08:54:26.979Z,49.88
2019-03-13T08:57:03.667Z,48.01
2019-03-13T08:59:57.844Z,47.87
2019-03-13T09:02:45.440Z,48.19
2019-03-13T09:05:26.445Z,48.84
2019-03-13T09:08:14.207Z,49.02
2019-03-13T09:11:03.482Z,49.10
2019-03-13T09:13:41.781Z,48.59
2019-03-13T09:16:31.360Z,48.37
2019-03-13T09:19:20.018Z,47.73
2019-03-13T09:22:15.353Z,48.49
2019-03-13T09:24:52.938Z,47.75
2019-03-13T09:27:51.673Z,47.42
2019-03-13T09:30:39.633Z,45.44
2019-03-13T09:33:39.540Z,46.16
2019-03-13T09:36:25.144Z,45.62
2019-03-13T09:39:06.238Z,43.18
2019-03-13T09:41:46.291Z,43.65
2019-03-13T09:44:44.576Z,43.74
2019-03-13T09:47:23.722Z,42.64
2019-03-13T09:50:13.270Z,40.70
2019-03-13T09:53:01.405Z,41.18
2019-03-13T09:56:06.374Z,39.50
2019-03-13T09:58:59.365Z,38.26
2019-03-13T10:02:06.777Z,39.29
2019-03-13T10:05:02.612Z,37.32
2019-03-13T10:07:51.916Z,36.67
2019-03-13T10:10:37.559Z,36.46
2019-03-13T10:13:41.939Z,36.00
2019-03-13T10:16:31.257Z,34.94
2019-03-13T10:19:20.567Z,33.97
2019-03-13T10:22:03.494Z,32.37
2019-03-13T10:24:52.712Z,33.24
2019-03-13T10:27:44.697Z,34.71
2019-03-13T10:30:34.801Z,34.68
2019-03-13T10:33:22.717Z,35.11
2019-03-13T10:36:12.270Z,34.08
2019-03-13T10:39:10.722Z,35.60
2019-03-13T10:42:04.578Z,36.34
2019-03-13T10:44:56.006Z,35.01
2019-03-13T10:47:53.773Z,35.22
2019-03-13T10:50:48.906Z,34.34
2019-03-13T10:53:32.794Z,34.37
2019-03-13T10:56:22.046Z,33.11
2019-03-13T10:59:00.659Z,32.95
2019-03-13T11:01:51.595Z,32.16
2019-03-13T11:04:34.045Z,32.10
2019-03-13T11:07:18.089Z,31.79
2019-03-13T11:10:05.790Z,31.01
2019-03-13T11:12:58.125Z,30.43
2019-03-13T11:15:50.762Z,31.19
2019-03-13T11:18:27.677Z,30.65
2019-03-13T11:21:25.811Z,30.22
2019-03-13T11:24:15.107Z,29.97
2019-03-13T11:27:03.216Z,29.67
2019-03-13T11:29:49.943Z,29.12
2019-03-13T11:32:48.459Z,29.40
2019-03-13T11:35:38.262Z,29.21
2019-03-13T11:38:26.206Z,28.28
2019-03-13T11:41:18.767Z,28.14
2019-03-13T11:44:07.101Z,28.45
2019-03-13T11:47:03.971Z,29.68
2019-03-13T11:49:52.210Z,29.67
2019-03-13T11:52:45.422Z,30.12
2019-03-13T11:55:23.792Z,30.75
2019-03-13T11:58:13.463Z,29.61
2019-03-13T12:00:52.591Z,29.15
2019-03-13T12:03:54.200Z,29.41
2019-03-13T12:06:44.029Z,27.58
2019-03-13T12:09:24.207Z,27.55
2019-03-13T12:12:25.425Z,27.38
2019-03-13T12:15:17.628Z,27.81
2019-03-13T12:18:09.992Z,28.56
2019-03-13T12:20:59.779Z,28.02
2019-03-13T12:24:01.097Z,28.54
2019-03-13T12:26:43.987Z,28.22
2019-03-13T12:29:36.331Z,28.19
2019-03-13T12:32:19.670Z,28.31
2019-03-13T12:35:07.265Z,28.80
2019-03-13T12:38:11.363Z,29.67
2019-03-13T12:41:19.144Z,30.02
2019-03-13T12:44:08.772Z,29.25
2019-03-13T12:46:50.955Z,29.09
2019-03-13T12:49:52.742Z,28.31
2019-03-13T12:52:40.792Z,28.53
2019-03-13T12:55:30.086Z,28.80
2019-03-13T12:58:20.053Z,29.03
2019-03-13T13:01:11.954Z,27.97
2019-03-13T13:03:56.004Z,29.89
2019-03-13T13:06:51.065Z,29.66
2019-03-13T13:09:39.235Z,29.76
2019-03-13T13:12:34.551Z,29.64
2019-03-13T13:15:30.341Z,29.88
2019-03-13T13:18:31.939Z,29.46
2019-03-13T13:21:02.740Z,29.91
2019-03-13T13:23:33.872Z,31.61
2019-03-13T13:26:04.514Z,31.79
2019-03-13T13:28:35.274Z,32.03
2019-03-13T13:31:05.888Z,31.55
2019-03-13T13:33:36.274Z,32.93
2019-03-13T13:36:07.350Z,32.87
2019-03-13T13:38:38.121Z,32.56
2019-03-13T13:41:08.711Z,32.56
2019-03-13T13:43:39.503Z,32.90
2019-03-13T13:46:30.468Z,33.36
2019-03-13T13:49:00.981Z,32.94
2019-03-13T13:51:32.845Z,32.14
2019-03-13T13:54:03.555Z,31.44
2019-03-13T13:56:33.990Z,30.98
2019-03-13T13:59:04.788Z,30.86
2019-03-13T14:01:35.066Z,30.81
2019-03-13T14:04:05.586Z,29.90
2019-03-13T14:06:35.975Z,30.01
2019-03-13T14:09:07.554Z,30.49
2019-03-13T14:11:39.505Z,30.44
2019-03-13T14:14:10.385Z,31.20
2019-03-13T14:16:40.767Z,31.66
2019-03-13T14:19:11.510Z,31.48
2019-03-13T14:21:42.026Z,31.75
2019-03-13T14:24:12.360Z,32.44
2019-03-13T14:26:43.391Z,33.00
2019-03-13T14:29:14.019Z,32.99
2019-03-13T14:31:45.462Z,33.36
2019-03-13T14:34:15.904Z,33.35
2019-03-13T14:36:46.602Z,33.94
2019-03-13T14:39:17.093Z,34.13
2019-03-13T14:41:47.757Z,34.63
2019-03-13T14:44:18.439Z,33.93
2019-03-13T14:46:48.887Z,34.26
2019-03-13T14:49:19.721Z,33.57
2019-03-13T14:51:50.006Z,33.41
2019-03-13T14:54:20.910Z,33.31
2019-03-13T14:56:51.737Z,32.48
2019-03-13T14:59:22.077Z,31.32
2019-03-13T15:01:53.430Z,31.89
2019-03-13T15:04:23.848Z,32.09
2019-03-13T15:06:54.125Z,32.47
2019-03-13T15:09:24.767Z,33.10
2019-03-13T15:11:55.797Z,33.74
2019-03-13T15:14:26.138Z,33.93
2019-03-13T15:16:56.560Z,34.32
2019-03-13T15:19:27.183Z,34.67
2019-03-13T15:21:57.919Z,35.73
2019-03-13T15:24:28.804Z,36.12
2019-03-13T15:27:00.175Z,36.43
2019-03-13T15:29:30.778Z,36.15
2019-03-13T15:32:01.583Z,36.33
2019-03-13T15:34:32.146Z,35.19
2019-03-13T15:37:02.535Z,35.22
2019-03-13T15:39:33.308Z,35.30
2019-03-13T15:42:03.604Z,35.33
2019-03-13T15:44:34.235Z,35.29
2019-03-13T15:47:04.967Z,34.47
2019-03-13T15:49:35.547Z,34.66
2019-03-13T15:52:06.124Z,34.52
2019-03-13T15:54:36.462Z,33.81
2019-03-13T15:57:06.890Z,33.56
2019-03-13T15:59:37.426Z,32.96
2019-03-13T16:02:07.825Z,33.29
2019-03-13T16:04:38.151Z,33.53
2019-03-13T16:07:08.843Z,33.60
2019-03-13T16:09:39.358Z,34.46
2019-03-13T16:12:09.751Z,34.44
2019-03-13T16:14:40.631Z,36.47
2019-03-13T16:17:11.267Z,37.36
2019-03-13T16:19:42.668Z,37.74
2019-03-13T16:22:14.790Z,38.52
2019-03-13T16:24:45.660Z,39.60
2019-03-13T16:27:17.586Z,40.35
2019-03-13T16:29:47.984Z,40.83
2019-03-13T16:32:20.062Z,42.33
2019-03-13T16:34:50.479Z,42.58
2019-03-13T16:37:20.901Z,43.08
2019-03-13T16:39:51.453Z,43.95
2019-03-13T16:42:22.755Z,44.48
2019-03-13T16:44:53.133Z,45.12
2019-03-13T16:47:23.778Z,46.23
2019-03-13T16:49:54.309Z,46.31
2019-03-13T16:52:25.697Z,46.53
2019-03-13T16:54:58.480Z,46.75
2019-03-13T16:57:28.556Z,47.59
2019-03-13T17:00:00.779Z,47.89
2019-03-13T17:02:31.920Z,48.04
2019-03-13T17:05:02.573Z,48.42
2019-03-13T17:07:34.367Z,48.67
2019-03-13T17:10:05.611Z,49.03
2019-03-13T17:12:35.971Z,49.20
2019-03-13T17:15:08.210Z,49.24
2019-03-13T17:17:39.041Z,49.49
2019-03-13T17:20:12.766Z,49.72
2019-03-13T17:22:43.611Z,49.87
2019-03-13T17:25:15.779Z,50.29
2019-03-13T17:27:46.651Z,50.36
2019-03-13T17:30:19.842Z,50.55
2019-03-13T17:32:50.269Z,50.77
2019-03-13T17:35:21.245Z,50.48
2019-03-13T17:37:51.775Z,50.91
2019-03-13T17:40:23.670Z,50.97
2019-03-13T17:42:55.480Z,50.94
2019-03-13T17:45:27.131Z,51.03
2019-03-13T17:47:57.965Z,51.09
2019-03-13T17:50:30.757Z,51.21
2019-03-13T17:53:02.091Z,51.18
2019-03-13T17:55:32.789Z,51.39
2019-03-13T17:58:03.498Z,51.44
2019-03-13T18:00:39.982Z,51.17
2019-03-13T18:03:10.893Z,51.58
2019-03-13T18:05:41.793Z,51.76
2019-03-13T18:08:12.220Z,51.65
2019-03-13T18:10:42.989Z,51.91
2019-03-13T18:13:13.689Z,51.75
2019-03-13T18:15:44.182Z,52.05
2019-03-13T18:18:14.486Z,51.97
2019-03-13T18:20:45.128Z,51.97
2019-03-13T18:23:15.407Z,51.95
2019-03-13T18:25:45.890Z,51.95
2019-03-13T18:28:16.288Z,51.83
2019-03-13T18:30:46.641Z,51.64
2019-03-13T18:33:16.933Z,52.25
2019-03-13T18:35:47.778Z,52.29
2019-03-13T18:38:18.559Z,52.38
2019-03-13T18:40:48.885Z,52.17
2019-03-13T18:43:19.580Z,52.24
2019-03-13T18:45:50.408Z,52.35
2019-03-13T18:48:20.823Z,52.18
2019-03-13T18:50:51.487Z,52.35
2019-03-13T18:53:22.172Z,52.42
2019-03-13T18:55:52.662Z,52.19
2019-03-13T18:58:23.070Z,52.36
2019-03-13T19:00:54.100Z,52.31
2019-03-13T19:03:24.382Z,52.19
2019-03-13T19:05:55.425Z,51.83
2019-03-13T19:08:27.025Z,52.25
2019-03-13T19:10:57.914Z,52.18
2019-03-13T19:13:28.874Z,51.92
2019-03-13T19:15:59.371Z,52.08
2019-03-13T19:18:29.765Z,54.54
2019-03-13T19:21:00.670Z,55.90
2019-03-13T19:23:31.922Z,55.36
2019-03-13T19:26:02.364Z,55.32
2019-03-13T19:28:33.078Z,55.20
2019-03-13T19:31:03.620Z,56.37
2019-03-13T19:33:33.907Z,55.67
2019-03-13T19:36:04.699Z,55.21
2019-03-13T19:38:35.031Z,55.08
2019-03-13T19:41:08.470Z,54.66
2019-03-13T19:43:37.911Z,54.95
2019-03-13T19:46:08.582Z,55.08
2019-03-13T19:48:39.263Z,55.62
2019-03-13T19:51:10.026Z,56.25
2019-03-13T19:53:41.916Z,55.92
2019-03-13T19:56:12.654Z,56.84
2019-03-13T19:58:43.102Z,57.76
2019-03-13T20:01:13.409Z,58.13
2019-03-13T20:03:54.581Z,57.99
2019-03-13T20:06:16.600Z,57.13
2019-03-13T20:08:47.026Z,56.02
2019-03-13T20:11:17.628Z,55.45
2019-03-13T20:13:47.925Z,55.44
2019-03-13T20:16:18.714Z,55.64
2019-03-13T20:18:49.941Z,55.38
2019-03-13T20:21:21.534Z,55.54
2019-03-13T20:23:52.250Z,55.49
2019-03-13T20:26:23.181Z,55.93
2019-03-13T20:28:53.561Z,55.92
2019-03-13T20:31:23.949Z,55.88
2019-03-13T20:33:54.730Z,56.37
2019-03-13T20:36:25.203Z,56.74
2019-03-13T20:38:55.688Z,56.68
2019-03-13T20:41:26.258Z,56.42
2019-03-13T20:43:56.643Z,56.62
2019-03-13T20:46:27.243Z,56.40
2019-03-13T20:48:57.965Z,56.28
2019-03-13T20:51:28.532Z,55.95
2019-03-13T20:53:58.875Z,55.73
2019-03-13T20:56:29.599Z,55.47
2019-03-13T20:59:00.021Z,56.08
2019-03-13T21:01:30.346Z,56.06
2019-03-13T21:04:01.003Z,57.72
2019-03-13T21:06:31.769Z,57.57
2019-03-13T21:09:02.141Z,57.25
2019-03-13T21:11:34.279Z,56.85
2019-03-13T21:14:04.687Z,56.61
2019-03-13T21:16:35.466Z,56.42
2019-03-13T21:19:06.203Z,56.68
2019-03-13T21:21:36.561Z,57.12
2019-03-13T21:24:07.379Z,57.66
2019-03-13T21:26:37.818Z,59.38
2019-03-13T21:29:08.211Z,59.47
2019-03-13T21:31:39.031Z,59.00
2019-03-13T21:34:09.825Z,59.33
2019-03-13T21:36:40.395Z,61.88
2019-03-13T21:39:11.129Z,61.77
2019-03-13T21:41:42.207Z,61.79
2019-03-13T21:44:12.632Z,60.84
2019-03-13T21:46:43.371Z,61.61
2019-03-13T21:49:13.770Z,62.73
2019-03-13T21:51:44.226Z,63.64
2019-03-13T21:54:14.920Z,62.38
2019-03-13T21:56:45.239Z,61.84
2019-03-13T21:59:15.566Z,61.66
2019-03-13T22:01:46.329Z,61.33
2019-03-13T22:04:24.235Z,60.77
2019-03-13T22:06:48.728Z,60.71
2019-03-13T22:09:19.183Z,60.20
2019-03-13T22:11:50.084Z,60.06
2019-03-13T22:14:20.488Z,59.63
2019-03-13T22:16:51.311Z,59.17
2019-03-13T22:19:21.754Z,58.32
2019-03-13T22:21:52.570Z,58.06
2019-03-13T22:24:23.830Z,57.34
2019-03-13T22:26:54.483Z,57.03
2019-03-13T22:29:24.951Z,56.49
2019-03-13T22:31:55.497Z,56.28
2019-03-13T22:34:25.807Z,55.69
2019-03-13T22:36:56.480Z,55.78
2019-03-13T22:39:27.155Z,55.36
2019-03-13T22:41:57.588Z,54.94
2019-03-13T22:44:28.251Z,54.71
2019-03-13T22:46:58.942Z,54.89
2019-03-13T22:49:29.361Z,54.91
2019-03-13T22:52:00.190Z,55.06
2019-03-13T22:54:30.476Z,54.64
2019-03-13T22:57:01.177Z,54.53
2019-03-13T22:59:31.539Z,55.03
2019-03-13T23:02:01.867Z,54.73
2019-03-13T23:04:35.695Z,54.95
2019-03-13T23:07:05.385Z,55.13
2019-03-13T23:09:35.676Z,55.36
2019-03-13T23:12:06.174Z,55.22
2019-03-13T23:14:36.957Z,55.01
2019-03-13T23:17:07.301Z,54.78
2019-03-13T23:19:37.647Z,54.83
2019-03-13T23:22:08.411Z,54.82
2019-03-13T23:24:38.830Z,54.90
2019-03-13T23:27:09.336Z,54.99
2019-03-13T23:29:39.670Z,55.17
2019-03-13T23:32:10.426Z,55.33
2019-03-13T23:34:41.148Z,55.56
2019-03-13T23:37:11.475Z,55.87
2019-03-13T23:39:41.991Z,55.70
2019-03-13T23:42:12.920Z,55.65
2019-03-13T23:44:44.191Z,55.88
2019-03-13T23:47:14.647Z,56.26
2019-03-13T23:49:45.185Z,56.29
2019-03-13T23:52:15.707Z,56.32
2019-03-13T23:54:46.348Z,56.39
2019-03-13T23:57:16.828Z,56.88
2019-03-13T23:59:47.154Z,57.28
